Time;durP1;ratioP1;P1;durP2;ratioP2;P2;SDS_P1;SDS_P2;PMS_P1;PMS_P2;Temp;Humidity;BMP_temperature;BMP_pressure;BME280_temperature;BME280_humidity;BME280_pressure;Samples;Min_cycle;Max_cycle;Signal;HPM_P1;HPM_P2
2021/06/03 00:00:55;;;;;;;14.85;7.60;;;;;;;11.84;61.85;100523.16;5118712;28;20129;-48
2021/06/03 00:03:21;;;;;;;12.35;6.75;;;;;;;11.79;61.95;100527.63;5118007;28;20056;-48
2021/06/03 00:05:51;;;;;;;11.43;6.90;;;;;;;11.79;61.89;100525.00;5118532;28;20453;-48
2021/06/03 00:08:17;;;;;;;10.48;6.78;;;;;;;11.74;61.92;100529.50;5118615;28;20143;-48
2021/06/03 00:10:55;;;;;;;8.63;6.10;;;;;;;11.72;61.98;100532.13;5118518;28;20051;-48
2021/06/03 00:13:21;;;;;;;10.05;6.47;;;;;;;11.66;62.06;100529.59;5118527;28;20122;-48
2021/06/03 00:15:47;;;;;;;9.57;6.05;;;;;;;11.65;61.82;100522.63;5118390;28;20048;-48
2021/06/03 00:18:13;;;;;;;9.57;5.78;;;;;;;11.62;61.91;100531.44;5117250;28;20047;-48
2021/06/03 00:20:39;;;;;;;10.63;6.57;;;;;;;11.58;62.20;100531.53;5118299;28;20047;-48
2021/06/03 00:23:05;;;;;;;10.30;6.82;;;;;;;11.56;62.65;100538.53;5117945;28;20442;-48
2021/06/03 00:25:32;;;;;;;13.48;7.28;;;;;;;11.54;62.55;100533.34;5118106;28;20039;-48
2021/06/03 00:27:57;;;;;;;9.40;6.57;;;;;;;11.51;62.45;100537.78;5118185;28;20327;-48
2021/06/03 00:30:23;;;;;;;9.68;6.32;;;;;;;11.48;62.54;100536.06;5118152;28;20063;-48
2021/06/03 00:32:49;;;;;;;10.73;7.47;;;;;;;11.46;62.76;100533.44;5118361;28;20074;-48
2021/06/03 00:35:15;;;;;;;11.32;6.68;;;;;;;11.42;63.14;100530.91;5118623;28;20043;-48
2021/06/03 00:37:41;;;;;;;11.32;6.80;;;;;;;11.39;63.03;100534.44;5116853;28;20054;-48
2021/06/03 00:40:09;;;;;;;9.38;5.70;;;;;;;11.36;62.92;100533.63;5116799;28;20051;-48
2021/06/03 00:42:35;;;;;;;16.58;6.20;;;;;;;11.34;62.79;100538.94;5117588;28;20075;-48
2021/06/03 00:45:03;;;;;;;9.57;6.38;;;;;;;11.33;63.00;100538.94;5117769;27;20108;-48
2021/06/03 00:47:29;;;;;;;10.75;5.93;;;;;;;11.29;63.12;100532.88;5117521;28;20058;-48
2021/06/03 00:49:55;;;;;;;11.07;6.80;;;;;;;11.25;63.29;100535.59;5117215;28;20031;-48
2021/06/03 00:52:21;;;;;;;9.68;6.63;;;;;;;11.22;63.91;100539.97;5117490;28;20043;-48
2021/06/03 00:54:47;;;;;;;12.30;7.68;;;;;;;11.15;63.89;100530.47;5117422;28;20440;-48
2021/06/03 00:57:12;;;;;;;11.10;7.03;;;;;;;11.14;63.86;100533.97;5117308;28;20073;-48
2021/06/03 00:59:39;;;;;;;12.70;6.30;;;;;;;11.12;63.41;100535.78;5116421;28;20442;-48
2021/06/03 01:02:04;;;;;;;8.63;6.40;;;;;;;11.09;63.55;100535.81;5117239;28;20058;-48
2021/06/03 01:04:33;;;;;;;9.10;7.03;;;;;;;11.07;64.07;100539.34;5116776;28;20055;-48
2021/06/03 01:06:59;;;;;;;11.80;6.47;;;;;;;11.04;63.59;100537.63;5117480;28;20060;-48
2021/06/03 01:09:33;;;;;;;15.40;7.60;;;;;;;11.02;64.22;100539.44;5117610;28;20047;-48
2021/06/03 01:12:03;;;;;;;12.18;6.88;;;;;;;11.00;63.89;100534.19;5099756;28;20361;-48
2021/06/03 01:14:34;;;;;;;10.77;6.93;;;;;;;10.96;64.03;100542.16;5116513;28;20396;-48
2021/06/03 01:17:00;;;;;;;11.15;7.88;;;;;;;10.90;64.77;100537.00;5118374;28;20057;-48
2021/06/03 01:19:31;;;;;;;12.77;7.40;;;;;;;10.90;64.61;100539.63;5099475;28;20135;-48
2021/06/03 01:22:02;;;;;;;9.93;6.65;;;;;;;10.87;64.30;100535.28;5099913;28;20051;-48
2021/06/03 01:24:34;;;;;;;11.98;7.45;;;;;;;10.83;64.72;100535.34;5116250;28;20357;-47
2021/06/03 01:27:06;;;;;;;11.82;7.18;;;;;;;10.79;64.63;100536.25;5083539;28;20438;-48
2021/06/03 01:29:51;;;;;;;10.25;6.43;;;;;;;10.77;64.60;100550.25;5116765;28;20358;-48
2021/06/03 01:32:17;;;;;;;10.43;6.85;;;;;;;10.70;65.58;100547.75;5116750;28;20442;-48
2021/06/03 01:34:43;;;;;;;9.85;6.68;;;;;;;10.69;65.12;100541.66;5116978;28;20043;-48
2021/06/03 01:37:09;;;;;;;11.07;6.85;;;;;;;10.68;65.22;100545.16;5115664;28;20032;-48
2021/06/03 01:39:35;;;;;;;10.93;7.00;;;;;;;10.63;65.49;100540.88;5116625;28;20104;-48
2021/06/03 01:42:02;;;;;;;15.13;7.50;;;;;;;10.60;65.97;100538.31;5116039;28;20055;-48
2021/06/03 01:44:28;;;;;;;12.20;6.85;;;;;;;10.59;65.89;100544.41;5116151;28;20047;-48
2021/06/03 01:46:54;;;;;;;10.02;7.00;;;;;;;10.54;65.88;100541.88;5098797;28;20105;-48
2021/06/03 01:49:21;;;;;;;10.77;6.47;;;;;;;10.53;65.51;100538.38;5082141;28;20040;-48
2021/06/03 01:51:47;;;;;;;13.05;6.00;;;;;;;10.49;66.23;100536.66;5082177;28;20396;-48
2021/06/03 01:54:15;;;;;;;14.27;6.75;;;;;;;10.48;65.79;100542.78;5082959;28;20059;-48
2021/06/03 01:56:41;;;;;;;9.88;6.63;;;;;;;10.42;65.57;100535.03;5116763;28;20039;-48
2021/06/03 01:59:09;;;;;;;11.52;6.80;;;;;;;10.45;65.82;100549.84;5098990;28;20036;-48
2021/06/03 02:01:35;;;;;;;13.77;7.53;;;;;;;10.40;65.89;100542.03;5115824;28;20051;-48
2021/06/03 02:04:02;;;;;;;18.48;8.40;;;;;;;10.39;65.70;100549.91;5116532;28;20043;-48
2021/06/03 02:06:28;;;;;;;12.52;7.20;;;;;;;10.35;65.90;100551.69;5116384;28;20032;-48
2021/06/03 02:08:58;;;;;;;12.32;7.32;;;;;;;10.32;65.96;100553.50;5115784;28;20051;-48
2021/06/03 02:11:24;;;;;;;13.50;7.47;;;;;;;10.26;65.95;100552.66;5115399;28;20052;-48
2021/06/03 02:13:57;;;;;;;14.05;7.60;;;;;;;10.21;66.35;100553.59;5099844;28;20051;-48
2021/06/03 02:16:43;;;;;;;11.88;7.25;;;;;;;10.19;66.15;100563.22;5101371;28;20051;-48
2021/06/03 02:19:13;;;;;;;12.00;7.90;;;;;;;10.18;66.21;100569.34;5115362;28;20465;-48
2021/06/03 02:21:47;;;;;;;11.75;6.95;;;;;;;10.16;66.11;100558.00;5115463;28;20043;-48
2021/06/03 02:24:13;;;;;;;13.48;7.68;;;;;;;10.14;66.17;100565.00;5116106;28;20078;-48
2021/06/03 02:26:42;;;;;;;11.85;8.13;;;;;;;10.10;66.52;100573.78;5116126;28;20135;-48
2021/06/03 02:29:12;;;;;;;13.05;7.47;;;;;;;10.04;66.70;100565.13;5116211;28;20400;-48
2021/06/03 02:31:40;;;;;;;11.55;7.82;;;;;;;9.94;66.62;100555.63;5116165;28;20039;-48
2021/06/03 02:34:07;;;;;;;10.82;7.03;;;;;;;10.00;66.48;100565.16;5099576;28;20081;-48
2021/06/03 02:36:34;;;;;;;13.35;7.15;;;;;;;9.98;66.59;100572.19;5116388;28;20048;-48
2021/06/03 02:39:00;;;;;;;10.63;6.88;;;;;;;9.96;66.58;100563.47;5115289;28;20478;-48
2021/06/03 02:41:28;;;;;;;12.50;6.90;;;;;;;9.95;66.22;100575.69;5115676;28;20105;-48
2021/06/03 02:43:55;;;;;;;12.25;6.68;;;;;;;9.93;66.08;100569.59;5115688;28;20052;-48
2021/06/03 02:46:22;;;;;;;10.90;7.13;;;;;;;9.90;66.05;100569.63;5115949;28;20119;-48
2021/06/03 02:48:50;;;;;;;10.95;7.32;;;;;;;9.89;66.16;100573.13;5115415;28;20059;-48
2021/06/03 02:51:16;;;;;;;10.45;7.40;;;;;;;9.88;66.17;100578.34;5081693;28;20039;-48
2021/06/03 02:53:44;;;;;;;10.23;6.43;;;;;;;9.84;66.13;100583.63;5115963;28;20036;-48
2021/06/03 02:56:17;;;;;;;9.15;6.75;;;;;;;9.79;66.50;100579.34;5099812;28;20425;-48
2021/06/03 02:58:46;;;;;;;9.93;6.93;;;;;;;9.76;66.76;100576.75;5115585;28;20472;-48
2021/06/03 03:01:12;;;;;;;11.15;7.00;;;;;;;9.73;66.67;100582.88;5101686;28;20044;-48
2021/06/03 03:03:38;;;;;;;12.60;7.13;;;;;;;9.71;67.09;100581.16;5118970;28;20044;-48
2021/06/03 03:06:04;;;;;;;10.18;6.80;;;;;;;9.70;67.04;100580.28;5101934;28;20386;-48
2021/06/03 03:08:30;;;;;;;9.93;6.60;;;;;;;9.70;67.23;100580.28;5119082;28;20372;-47
2021/06/03 03:10:58;;;;;;;10.07;6.32;;;;;;;9.71;66.90;100584.63;5119687;28;20052;-48
2021/06/03 03:13:29;;;;;;;9.82;6.20;;;;;;;9.68;67.07;100587.25;5102654;28;20054;-48
2021/06/03 03:15:55;;;;;;;11.55;7.25;;;;;;;9.70;67.09;100585.50;5118763;28;20063;-48
2021/06/03 03:18:23;;;;;;;11.30;7.15;;;;;;;9.69;67.28;100588.16;5119321;28;20505;-48
2021/06/03 03:20:50;;;;;;;10.02;6.68;;;;;;;9.68;67.47;100587.25;5118654;28;20058;-48
2021/06/03 03:23:15;;;;;;;15.10;8.60;;;;;;;9.70;67.60;100587.28;5119731;28;20039;-48
2021/06/03 03:25:44;;;;;;;13.35;7.45;;;;;;;9.71;67.43;100592.47;5118478;28;20043;-48
2021/06/03 03:28:10;;;;;;;14.68;8.60;;;;;;;9.72;67.79;100591.63;5118222;28;20043;-48
2021/06/03 03:30:41;;;;;;;14.93;7.50;;;;;;;9.74;67.53;100587.22;5118829;28;20059;-48
2021/06/03 03:33:09;;;;;;;15.25;8.52;;;;;;;9.76;67.83;100585.47;5118699;28;20051;-47
2021/06/03 03:35:35;;;;;;;14.50;7.20;;;;;;;9.78;67.65;100588.03;5119223;28;20104;-48
2021/06/03 03:38:01;;;;;;;14.45;7.40;;;;;;;9.80;67.52;100592.38;5118011;28;20081;-48
2021/06/03 03:40:27;;;;;;;15.93;8.38;;;;;;;9.84;67.56;100590.59;5117953;28;20056;-48
2021/06/03 03:42:56;;;;;;;11.85;7.18;;;;;;;9.87;67.70;100594.94;5118741;28;20047;-48
2021/06/03 03:45:23;;;;;;;13.90;7.70;;;;;;;9.88;68.07;100599.28;5100867;28;20050;-48
2021/06/03 03:47:49;;;;;;;10.82;7.38;;;;;;;9.91;67.95;100599.25;5118426;28;20036;-48
2021/06/03 03:50:15;;;;;;;14.32;7.40;;;;;;;9.91;67.88;100597.53;5118335;28;20055;-48
2021/06/03 03:52:42;;;;;;;8.70;6.20;;;;;;;10.02;67.88;100605.28;5101747;28;20055;-48
2021/06/03 03:55:08;;;;;;;13.73;7.75;;;;;;;10.05;68.00;100603.50;5117987;28;20418;-48
2021/06/03 03:57:35;;;;;;;11.43;7.70;;;;;;;10.15;68.58;100604.25;5118491;28;20434;-48
2021/06/03 04:00:05;;;;;;;10.55;7.28;;;;;;;10.39;68.54;100612.75;5117627;28;20375;-48
2021/06/03 04:02:31;;;;;;;9.95;6.70;;;;;;;10.53;68.24;100600.38;5118705;28;20047;-48
2021/06/03 04:04:57;;;;;;;10.50;7.03;;;;;;;10.79;68.57;100614.88;5118325;28;20051;-48
2021/06/03 04:07:23;;;;;;;13.50;6.72;;;;;;;11.15;68.71;100621.41;5117486;28;20048;-48
2021/06/03 04:09:49;;;;;;;10.32;7.00;;;;;;;11.57;68.54;100622.50;5118594;28;20051;-48
2021/06/03 04:12:15;;;;;;;10.10;6.88;;;;;;;12.07;67.35;100626.00;5116812;28;20462;-48
2021/06/03 04:14:43;;;;;;;10.63;6.85;;;;;;;12.69;66.32;100617.81;5117607;28;20039;-48
2021/06/03 04:17:09;;;;;;;10.65;6.82;;;;;;;13.32;64.95;100619.94;5117583;28;20046;-48
2021/06/03 04:19:35;;;;;;;9.85;6.25;;;;;;;13.91;63.76;100616.75;5100339;28;20093;-48
2021/06/03 04:22:02;;;;;;;12.95;7.03;;;;;;;14.56;61.52;100620.25;5117481;28;20043;-48
2021/06/03 04:24:30;;;;;;;14.93;7.20;;;;;;;15.17;60.09;100621.06;5117326;28;20050;-48
2021/06/03 04:26:57;;;;;;;10.93;6.80;;;;;;;15.70;58.77;100621.19;5118261;28;20039;-48
2021/06/03 04:29:22;;;;;;;9.75;6.68;;;;;;;16.26;57.03;100626.28;5118189;28;20058;-48
2021/06/03 04:31:48;;;;;;;11.70;7.05;;;;;;;16.82;55.23;100620.69;5118117;28;20065;-48
2021/06/03 04:34:14;;;;;;;11.98;7.75;;;;;;;17.47;54.86;100624.31;5118338;28;20051;-48
2021/06/03 04:36:40;;;;;;;8.07;6.25;;;;;;;18.12;53.16;100619.88;5117820;28;20047;-48
2021/06/03 04:39:05;;;;;;;14.02;7.18;;;;;;;18.66;51.45;100625.44;5117851;28;20361;-48
2021/06/03 04:41:33;;;;;;;12.85;7.55;;;;;;;19.10;49.37;100625.19;5117128;28;20433;-48
2021/06/03 04:43:59;;;;;;;10.30;6.95;;;;;;;19.68;48.84;100621.53;5117893;28;20104;-48
2021/06/03 04:46:24;;;;;;;10.70;8.45;;;;;;;20.12;46.71;100627.25;5116660;28;20043;-48
2021/06/03 04:48:50;;;;;;;9.57;7.35;;;;;;;20.49;45.95;100620.84;5116958;28;20437;-48
2021/06/03 04:51:16;;;;;;;10.60;7.72;;;;;;;20.89;45.35;100624.03;5117793;28;20447;-48
2021/06/03 04:53:42;;;;;;;11.07;7.95;;;;;;;21.01;44.49;100626.03;5117466;28;20043;-48
2021/06/03 04:56:08;;;;;;;11.55;8.27;;;;;;;21.36;43.22;100619.69;5117411;28;20047;-48
2021/06/03 04:58:33;;;;;;;13.68;8.32;;;;;;;21.63;42.43;100627.91;5117336;28;20048;-48
2021/06/03 05:00:59;;;;;;;16.35;8.25;;;;;;;21.90;41.90;100630.75;5117310;28;20043;-49
2021/06/03 05:03:25;;;;;;;13.15;8.38;;;;;;;22.21;41.52;100635.16;5117292;28;20067;-49
2021/06/03 05:05:51;;;;;;;12.68;9.27;;;;;;;22.44;40.38;100644.41;5117400;28;20044;-49
2021/06/03 05:08:17;;;;;;;14.35;9.82;;;;;;;22.55;39.93;100641.09;5117199;28;20495;-49
2021/06/03 05:10:43;;;;;;;14.05;8.85;;;;;;;22.85;39.61;100649.00;5117407;28;20055;-49
2021/06/03 05:13:09;;;;;;;16.60;9.02;;;;;;;23.00;38.77;100636.50;5116257;28;20040;-49
2021/06/03 05:15:35;;;;;;;15.82;9.50;;;;;;;23.07;38.94;100630.72;5117293;28;20051;-49
2021/06/03 05:18:01;;;;;;;13.52;9.88;;;;;;;23.13;38.67;100637.44;5117280;28;20116;-49
2021/06/03 05:20:33;;;;;;;13.98;10.07;;;;;;;23.23;38.21;100641.22;5116974;28;20127;-49
2021/06/03 05:22:59;;;;;;;12.57;10.43;;;;;;;23.18;38.04;100640.69;5116601;28;20062;-49
2021/06/03 05:25:30;;;;;;;14.32;10.45;;;;;;;23.64;38.10;100643.03;5117071;28;20403;-49
2021/06/03 05:27:58;;;;;;;12.27;10.48;;;;;;;23.74;37.56;100636.13;5116884;28;20078;-49
2021/06/03 05:30:24;;;;;;;22.00;12.15;;;;;;;23.87;37.35;100638.84;5116251;28;20070;-49
2021/06/03 05:32:50;;;;;;;19.88;11.82;;;;;;;24.06;37.23;100642.94;5116155;28;20071;-49
2021/06/03 05:35:17;;;;;;;14.95;12.40;;;;;;;24.20;36.20;100642.84;5116973;28;20354;-49
2021/06/03 05:37:43;;;;;;;13.35;10.77;;;;;;;24.34;37.01;100641.88;5115624;28;20051;-49
2021/06/03 05:40:09;;;;;;;15.18;11.75;;;;;;;24.38;36.30;100646.09;5116684;28;20039;-49
2021/06/03 05:42:35;;;;;;;14.18;12.35;;;;;;;24.30;36.44;100605.59;5116874;28;20047;-49
2021/06/03 05:45:02;;;;;;;13.18;11.13;;;;;;;24.68;36.60;100648.47;5099989;28;20066;-49
2021/06/03 05:47:28;;;;;;;12.32;10.45;;;;;;;25.11;35.73;100648.91;5116851;28;20051;-49
2021/06/03 05:49:53;;;;;;;14.40;10.98;;;;;;;25.24;35.40;100648.91;5115623;28;20457;-49
2021/06/03 05:52:19;;;;;;;9.50;8.32;;;;;;;25.62;35.24;100650.59;5116782;28;20044;-49
2021/06/03 05:54:45;;;;;;;10.43;7.97;;;;;;;25.81;34.16;100655.47;5117372;28;20067;-49
2021/06/03 05:57:11;;;;;;;8.18;6.88;;;;;;;25.92;33.74;100654.63;5116738;28;20036;-49
2021/06/03 05:59:36;;;;;;;11.15;7.43;;;;;;;26.05;34.22;100658.94;5116452;28;20055;-49
2021/06/03 06:02:05;;;;;;;11.30;7.18;;;;;;;26.21;32.79;100655.09;5116912;28;20075;-49
2021/06/03 06:06:57;;;;;;;9.68;7.50;;;;;;;26.41;31.18;100662.44;5116344;28;20438;-49
2021/06/03 06:09:23;;;;;;;7.63;6.05;;;;;;;26.56;31.91;100657.75;5116661;28;20051;-49
2021/06/03 06:11:49;;;;;;;9.18;7.90;;;;;;;26.53;31.33;100656.16;5116304;28;20054;-49
2021/06/03 06:14:14;;;;;;;9.98;7.50;;;;;;;26.61;31.24;100657.38;5116061;28;20062;-49
2021/06/03 06:16:40;;;;;;;11.88;7.70;;;;;;;26.84;32.10;100656.41;5114563;28;20369;-49
2021/06/03 06:19:07;;;;;;;7.80;6.70;;;;;;;26.99;31.35;100665.94;5114569;28;20060;-49
2021/06/03 06:21:33;;;;;;;8.75;7.35;;;;;;;27.15;30.61;100660.19;5113635;28;20047;-49
2021/06/03 06:23:59;;;;;;;9.73;6.78;;;;;;;27.35;30.55;100671.16;5114548;28;20074;-49
2021/06/03 06:26:25;;;;;;;9.32;5.55;;;;;;;27.50;30.90;100670.75;5114679;28;20369;-49
2021/06/03 06:28:51;;;;;;;9.05;6.35;;;;;;;27.66;29.91;100673.03;5097609;28;20051;-49
2021/06/03 06:31:17;;;;;;;9.80;6.00;;;;;;;27.76;30.30;100674.97;5116355;28;20056;-49
2021/06/03 06:33:42;;;;;;;9.43;6.13;;;;;;;27.88;29.76;100673.94;5116303;28;20051;-49
2021/06/03 06:36:08;;;;;;;8.27;6.40;;;;;;;28.01;30.34;100673.78;5119869;28;20050;-49
2021/06/03 06:38:35;;;;;;;9.15;6.18;;;;;;;27.97;30.09;100675.88;5119977;28;20058;-49
2021/06/03 06:41:00;;;;;;;9.65;5.97;;;;;;;28.12;29.62;100676.44;5120325;28;20077;-49
2021/06/03 06:43:26;;;;;;;13.35;7.05;;;;;;;28.17;29.30;100682.25;5120252;28;20058;-49
2021/06/03 06:45:53;;;;;;;14.80;8.30;;;;;;;28.11;29.66;100683.66;5119820;28;20051;-49
2021/06/03 06:48:18;;;;;;;9.52;6.88;;;;;;;28.16;29.55;100688.63;5120255;28;20043;-49
2021/06/03 06:50:45;;;;;;;12.07;7.75;;;;;;;28.26;30.09;100692.25;5119821;28;20047;-49
2021/06/03 06:53:11;;;;;;;15.70;8.07;;;;;;;28.42;30.51;100681.91;5120063;28;20074;-49
2021/06/03 06:55:37;;;;;;;13.30;9.20;;;;;;;28.57;29.54;100679.72;5120293;27;20044;-49
2021/06/03 06:58:03;;;;;;;11.10;8.63;;;;;;;28.40;29.25;100677.63;5120023;27;20077;-49
2021/06/03 07:00:31;;;;;;;83.03;55.78;;;;;;;28.45;29.51;100679.94;5119906;28;20087;-49
2021/06/03 07:02:57;;;;;;;530.47;427.98;;;;;;;28.59;28.25;100680.44;5084942;28;20047;-49
2021/06/03 07:05:22;;;;;;;120.68;106.28;;;;;;;28.38;27.99;100664.25;5119733;28;20044;-49
2021/06/03 07:07:49;;;;;;;58.92;53.25;;;;;;;28.37;28.12;100680.53;5102264;28;20052;-49
2021/06/03 07:10:15;;;;;;;36.05;32.70;;;;;;;28.46;28.70;100678.94;5119493;28;20044;-49
2021/06/03 07:12:41;;;;;;;11.55;10.32;;;;;;;28.63;28.41;100681.88;5118852;28;20071;-50
2021/06/03 07:15:08;;;;;;;11.27;7.95;;;;;;;28.63;28.36;100678.31;5118540;28;20127;-49
2021/06/03 07:17:35;;;;;;;10.38;7.90;;;;;;;28.89;29.00;100684.09;5119407;28;20045;-50
2021/06/03 07:20:02;;;;;;;8.05;5.78;;;;;;;29.28;26.71;100681.56;5119797;28;20055;-50
2021/06/03 07:22:27;;;;;;;7.65;6.40;;;;;;;29.66;27.31;100682.69;5120025;27;20438;-50
2021/06/03 07:24:53;;;;;;;8.60;6.90;;;;;;;30.11;25.86;100687.53;5119427;28;20055;-50
2021/06/03 07:27:19;;;;;;;10.48;9.35;;;;;;;30.23;25.80;100689.09;5119691;27;20047;-50
2021/06/03 07:29:45;;;;;;;9.63;8.43;;;;;;;30.27;25.27;100687.81;5118179;28;20082;-49
2021/06/03 07:32:11;;;;;;;10.50;7.63;;;;;;;29.91;24.59;100646.19;5119351;28;20076;-49
2021/06/03 07:34:37;;;;;;;8.10;6.85;;;;;;;30.27;24.65;100683.25;5101794;28;20346;-50
2021/06/03 07:37:03;;;;;;;8.80;6.63;;;;;;;30.41;24.15;100689.19;5118802;28;20067;-50
2021/06/03 07:39:29;;;;;;;3.97;3.30;;;;;;;30.47;22.49;100683.22;5119198;28;20047;-49
2021/06/03 07:41:54;;;;;;;5.47;2.42;;;;;;;30.32;22.13;100674.72;5119173;27;20361;-49
2021/06/03 07:44:20;;;;;;;6.95;4.63;;;;;;;30.17;24.07;100677.00;5119024;28;20047;-49
2021/06/03 07:46:46;;;;;;;5.97;3.80;;;;;;;30.03;23.97;100669.34;5118867;28;20039;-49
2021/06/03 07:49:13;;;;;;;7.70;3.00;;;;;;;29.90;23.34;100672.34;5101155;28;20054;-49
2021/06/03 07:51:43;;;;;;;6.05;3.15;;;;;;;30.03;23.23;100670.19;5118554;28;20450;-49
2021/06/03 07:54:10;;;;;;;4.85;1.98;;;;;;;30.20;24.54;100668.63;5101057;28;20055;-49
2021/06/03 07:56:35;;;;;;;3.25;2.03;;;;;;;30.44;22.82;100667.31;5100758;28;20052;-49
2021/06/03 07:59:02;;;;;;;3.05;1.88;;;;;;;30.58;21.75;100680.38;5118536;28;20114;-50
2021/06/03 08:01:28;;;;;;;1.75;1.25;;;;;;;30.40;21.14;100679.41;5101015;28;20073;-50
2021/06/03 08:03:55;;;;;;;1.45;1.00;;;;;;;30.41;21.16;100670.28;5117847;28;20357;-49
2021/06/03 08:06:22;;;;;;;4.20;0.90;;;;;;;30.23;20.44;100659.41;5118354;28;20050;-50
2021/06/03 08:08:47;;;;;;;2.42;0.80;;;;;;;30.26;20.73;100667.22;5117794;28;20051;-50
2021/06/03 08:11:13;;;;;;;1.45;0.68;;;;;;;30.48;21.40;100674.09;5100701;28;20071;-50
2021/06/03 08:13:39;;;;;;;1.35;0.80;;;;;;;30.28;20.98;100647.13;5118868;28;20120;-50
2021/06/03 08:16:05;;;;;;;0.77;0.57;;;;;;;30.32;19.48;100677.41;5117307;28;20067;-50
2021/06/03 08:18:31;;;;;;;1.40;0.75;;;;;;;30.10;19.90;100673.16;5118975;28;20047;-50
2021/06/03 08:20:58;;;;;;;5.72;0.98;;;;;;;30.20;18.87;100674.03;5118382;28;20127;-50
2021/06/03 08:23:28;;;;;;;4.07;0.70;;;;;;;29.74;19.60;100685.53;5118060;28;20050;-49
2021/06/03 08:25:56;;;;;;;2.53;0.70;;;;;;;29.61;19.70;100676.84;5117168;28;20043;-50
2021/06/03 08:28:22;;;;;;;4.53;0.80;;;;;;;29.55;20.15;100679.09;5117940;28;20039;-50
2021/06/03 08:30:48;;;;;;;3.25;1.33;;;;;;;29.42;21.02;100678.50;5118455;28;20056;-50
2021/06/03 08:33:14;;;;;;;3.45;1.08;;;;;;;29.47;21.16;100678.06;5117901;28;20099;-49
2021/06/03 08:35:40;;;;;;;4.53;0.88;;;;;;;29.48;21.58;100679.81;5118066;28;20362;-49
2021/06/03 08:38:08;;;;;;;1.83;0.98;;;;;;;29.39;21.56;100677.94;5117858;28;20082;-50
2021/06/03 08:40:39;;;;;;;1.90;0.80;;;;;;;29.34;21.51;100675.63;5118303;28;20047;-50
2021/06/03 08:43:05;;;;;;;1.63;1.13;;;;;;;29.55;22.13;100683.63;5117991;28;20059;-50
2021/06/03 08:45:32;;;;;;;1.50;0.98;;;;;;;29.78;21.27;100685.09;5117844;28;20043;-49
2021/06/03 08:47:57;;;;;;;3.90;0.73;;;;;;;29.66;21.18;100686.22;5117840;28;20048;-50
2021/06/03 08:50:26;;;;;;;4.68;0.70;;;;;;;29.72;21.47;100692.91;5117458;28;20130;-49
2021/06/03 08:52:52;;;;;;;2.08;1.05;;;;;;;29.34;21.07;100683.72;5117521;28;20047;-50
2021/06/03 08:58:03;;;;;;;3.40;1.45;;;;;;;28.41;22.30;100674.81;5116854;28;20071;-49
2021/06/03 09:00:29;;;;;;;3.88;2.30;;;;;;;28.31;23.31;100664.94;5116754;28;20048;-49
2021/06/03 09:02:55;;;;;;;2.88;1.90;;;;;;;28.06;23.75;100676.94;5116698;28;20469;-49
2021/06/03 09:05:21;;;;;;;3.35;1.45;;;;;;;28.08;23.28;100681.22;5117434;28;20044;-49
2021/06/03 09:07:48;;;;;;;3.05;1.10;;;;;;;28.00;22.95;100675.63;5116523;28;20074;-49
2021/06/03 09:10:28;;;;;;;2.40;1.10;;;;;;;27.82;22.12;100674.47;5117100;27;20469;-49
2021/06/03 09:13:15;;;;;;;2.20;1.10;;;;;;;27.95;23.32;100689.47;5116270;28;20040;-49
2021/06/03 09:15:47;;;;;;;2.58;1.10;;;;;;;28.09;23.58;100682.06;5117653;28;20052;-49
2021/06/03 09:18:13;;;;;;;2.33;0.80;;;;;;;27.86;23.32;100676.78;5116999;28;20043;-49
2021/06/03 09:20:42;;;;;;;4.47;0.65;;;;;;;28.01;23.60;100679.16;5116966;28;20054;-49
2021/06/03 09:23:23;;;;;;;3.22;0.70;;;;;;;28.02;22.39;100676.34;5116284;28;20051;-49
2021/06/03 09:25:49;;;;;;;16.52;10.95;;;;;;;27.99;23.27;100678.44;5117137;28;20044;-49
2021/06/03 09:28:25;;;;;;;4.20;3.35;;;;;;;28.17;22.91;100682.25;5117141;28;20116;-49
2021/06/03 09:30:56;;;;;;;1.55;1.05;;;;;;;28.28;21.84;100676.81;5117123;28;20058;-49
2021/06/03 09:33:38;;;;;;;3.28;1.50;;;;;;;28.31;23.24;100681.94;5117052;28;20055;-49
2021/06/03 09:36:05;;;;;;;1.48;0.95;;;;;;;28.40;23.17;100675.81;5117080;28;20130;-49
2021/06/03 09:38:31;;;;;;;1.58;0.82;;;;;;;28.47;22.89;100672.56;5116551;28;20059;-50
2021/06/03 09:40:57;;;;;;;4.07;1.38;;;;;;;28.66;22.24;100672.66;5117001;28;20062;-50
2021/06/03 09:43:23;;;;;;;4.32;1.10;;;;;;;28.54;22.45;100674.59;5116661;28;20048;-50
2021/06/03 09:45:59;;;;;;;2.13;0.80;;;;;;;28.71;22.36;100681.22;5116815;28;20084;-50
2021/06/03 09:48:34;;;;;;;2.97;1.38;;;;;;;28.89;23.46;100668.81;5117203;28;20047;-50
2021/06/03 09:51:21;;;;;;;1.00;0.90;;;;;;;29.05;22.34;100675.56;5116847;28;20048;-50
2021/06/03 09:54:07;;;;;;;2.22;1.25;;;;;;;29.13;22.38;100664.94;5116888;28;20051;-50
2021/06/03 09:56:37;;;;;;;2.20;1.10;;;;;;;29.07;22.66;100660.09;5116810;28;20047;-50
2021/06/03 09:59:08;;;;;;;5.07;0.82;;;;;;;29.03;22.59;100658.69;5116846;28;20052;-57
2021/06/03 10:01:50;;;;;;;1.30;1.08;;;;;;;29.08;21.89;100662.66;5115968;28;20056;-57
2021/06/03 10:04:18;;;;;;;3.83;0.82;;;;;;;29.15;22.65;100662.94;5116910;28;20153;-57
2021/06/03 10:07:03;;;;;;;1.52;1.10;;;;;;;29.01;22.74;100657.94;5116374;28;20040;-57
2021/06/03 10:09:36;;;;;;;2.17;1.63;;;;;;;28.63;23.05;100654.06;5117194;28;20353;-57
2021/06/03 10:12:03;;;;;;;10.20;1.17;;;;;;;28.43;24.31;100651.25;5120949;28;20113;-56
2021/06/03 10:14:29;;;;;;;2.85;1.60;;;;;;;28.63;24.03;100660.34;5120689;28;20059;-55
2021/06/03 10:16:55;;;;;;;2.60;1.73;;;;;;;28.83;24.76;100671.19;5119990;28;20044;-56
2021/06/03 10:19:27;;;;;;;3.75;2.28;;;;;;;29.05;23.36;100672.84;5120404;28;20142;-56
2021/06/03 10:22:22;;;;;;;5.50;1.70;;;;;;;29.03;22.33;100664.06;5119853;28;20052;-57
2021/06/03 10:24:49;;;;;;;3.10;1.80;;;;;;;29.09;22.72;100663.53;5120602;28;20129;-56
2021/06/03 10:27:16;;;;;;;2.25;1.90;;;;;;;28.94;22.61;100667.53;5120388;28;20373;-57
2021/06/03 10:29:41;;;;;;;1.95;1.50;;;;;;;28.83;22.51;100655.88;5120153;28;20071;-57
2021/06/03 10:32:08;;;;;;;3.15;1.42;;;;;;;28.90;22.63;100658.88;5119669;28;20048;-57
2021/06/03 10:34:33;;;;;;;4.47;2.50;;;;;;;29.00;22.75;100658.91;5120150;28;20054;-57
2021/06/03 10:37:00;;;;;;;2.47;1.88;;;;;;;29.17;21.66;100660.13;5120202;28;20054;-56
2021/06/03 10:39:26;;;;;;;4.65;1.00;;;;;;;29.06;21.39;100661.09;5085453;28;20113;-57
2021/06/03 10:41:52;;;;;;;1.75;0.80;;;;;;;28.50;22.66;100658.81;5119412;28;20051;-56
2021/06/03 10:44:17;;;;;;;3.13;2.38;;;;;;;28.60;23.05;100655.22;5120185;28;20058;-56
2021/06/03 10:46:44;;;;;;;2.22;1.33;;;;;;;28.70;22.77;100657.06;5119181;28;20418;-56
2021/06/03 10:49:10;;;;;;;7.55;2.85;;;;;;;28.71;22.57;100661.50;5119782;28;20040;-56
2021/06/03 10:51:35;;;;;;;5.88;3.97;;;;;;;28.69;22.33;100652.69;5119137;28;20051;-56
2021/06/03 10:54:01;;;;;;;6.78;4.95;;;;;;;28.76;22.39;100649.34;5119767;28;20043;-57
2021/06/03 10:56:27;;;;;;;5.88;3.13;;;;;;;28.88;22.86;100650.91;5118937;28;20050;-57
2021/06/03 10:58:54;;;;;;;2.30;1.30;;;;;;;29.04;22.35;100661.22;5102211;28;20449;-57
2021/06/03 11:01:21;;;;;;;2.78;1.40;;;;;;;28.91;21.82;100644.41;5119956;28;20047;-57
2021/06/03 11:03:55;;;;;;;1.70;1.35;;;;;;;29.02;21.95;100648.84;5120580;28;20134;-58
2021/06/03 11:06:23;;;;;;;5.97;2.38;;;;;;;29.29;22.59;100649.09;5119404;28;20035;-57
2021/06/03 11:08:54;;;;;;;2.38;1.40;;;;;;;29.43;22.20;100647.81;5119861;28;20039;-57
2021/06/03 11:11:23;;;;;;;2.20;1.10;;;;;;;29.29;22.72;100642.84;5119868;28;20053;-58
2021/06/03 11:13:49;;;;;;;5.32;1.15;;;;;;;29.60;23.52;100646.31;5119476;28;20055;-58
2021/06/03 11:16:21;;;;;;;3.13;1.92;;;;;;;29.81;23.47;100638.94;5119367;27;20054;-58
2021/06/03 11:18:47;;;;;;;3.38;2.20;;;;;;;29.88;23.28;100636.50;5119661;28;20514;-58
2021/06/03 11:21:34;;;;;;;3.08;0.90;;;;;;;30.07;22.77;100629.41;5118768;28;20043;-58
2021/06/03 11:24:07;;;;;;;1.92;1.00;;;;;;;30.13;21.57;100624.28;5119539;28;20054;-58
2021/06/03 11:26:42;;;;;;;5.43;1.23;;;;;;;30.08;21.02;100617.59;5119460;28;20048;-58
2021/06/03 11:29:14;;;;;;;2.35;0.88;;;;;;;29.96;21.37;100617.72;5119463;28;20043;-58